createdAt,value
2023-10-17T00:01:46.415Z,4.00
2023-10-17T00:04:21.289Z,3.70
2023-10-17T00:07:00.303Z,3.70
2023-10-17T00:09:31.238Z,3.60
2023-10-17T00:12:00.248Z,3.70
2023-10-17T00:14:36.487Z,3.60
2023-10-17T00:17:05.757Z,3.60
2023-10-17T00:19:34.256Z,3.40
2023-10-17T00:22:05.383Z,3.50
2023-10-17T00:24:34.836Z,3.20
2023-10-17T00:27:06.198Z,3.20
2023-10-17T00:29:34.881Z,3.00
2023-10-17T00:32:03.191Z,3.70
2023-10-17T00:34:31.497Z,3.00
2023-10-17T00:37:08.270Z,3.50
2023-10-17T00:39:38.786Z,3.60
2023-10-17T00:42:09.318Z,3.20
2023-10-17T00:44:41.994Z,3.10
2023-10-17T00:47:20.439Z,3.20
2023-10-17T00:49:51.319Z,3.10
2023-10-17T00:52:27.630Z,2.90
2023-10-17T00:54:56.814Z,3.20
2023-10-17T00:57:28.669Z,3.20
2023-10-17T00:59:58.649Z,3.30
2023-10-17T01:02:31.726Z,3.20
2023-10-17T01:05:01.231Z,3.30
2023-10-17T01:07:32.942Z,3.10
2023-10-17T01:10:15.707Z,2.90
2023-10-17T01:12:55.926Z,3.10
2023-10-17T01:15:29.968Z,3.30
2023-10-17T01:18:08.013Z,2.90
2023-10-17T01:20:37.144Z,2.80
2023-10-17T01:23:05.866Z,2.40
2023-10-17T01:25:42.710Z,2.90
2023-10-17T01:28:12.132Z,2.40
2023-10-17T01:30:42.927Z,2.50
2023-10-17T01:33:14.111Z,2.60
2023-10-17T01:35:45.673Z,2.60
2023-10-17T01:38:14.864Z,2.50
2023-10-17T01:40:43.138Z,2.40
2023-10-17T01:43:12.102Z,2.50
2023-10-17T01:45:43.796Z,2.30
2023-10-17T01:48:15.060Z,2.30
2023-10-17T01:50:45.931Z,2.70
2023-10-17T01:53:14.617Z,2.60
2023-10-17T01:55:50.268Z,2.20
2023-10-17T01:58:20.017Z,2.70
2023-10-17T02:00:48.475Z,2.90
2023-10-17T02:03:18.508Z,3.00
2023-10-17T02:05:47.270Z,2.80
2023-10-17T02:08:16.366Z,2.60
2023-10-17T02:10:45.600Z,3.20
2023-10-17T02:13:16.700Z,3.40
2023-10-17T02:15:46.181Z,3.30
2023-10-17T02:18:16.804Z,2.70
2023-10-17T02:20:53.094Z,3.10
2023-10-17T02:23:21.580Z,2.50
2023-10-17T02:25:51.766Z,2.70
2023-10-17T02:28:20.080Z,3.20
2023-10-17T02:30:48.475Z,2.80
2023-10-17T02:33:19.641Z,3.10
2023-10-17T02:35:59.004Z,2.80
2023-10-17T02:38:27.226Z,2.70
2023-10-17T02:40:56.430Z,3.20
2023-10-17T02:43:25.251Z,2.50
2023-10-17T02:45:55.043Z,3.10
2023-10-17T02:48:29.084Z,2.90
2023-10-17T02:51:00.700Z,2.50
2023-10-17T02:53:33.575Z,2.50
2023-10-17T02:56:20.500Z,2.60
2023-10-17T02:59:08.192Z,2.70
2023-10-17T03:01:41.005Z,3.20
2023-10-17T03:04:14.304Z,3.10
2023-10-17T03:06:44.461Z,2.90
2023-10-17T03:09:38.239Z,3.10
2023-10-17T03:12:06.907Z,3.20
2023-10-17T03:14:42.024Z,3.10
2023-10-17T03:17:11.227Z,3.00
2023-10-17T03:19:40.314Z,3.20
2023-10-17T03:22:19.867Z,3.10
2023-10-17T03:24:49.125Z,3.10
2023-10-17T03:27:38.581Z,3.20
2023-10-17T03:30:12.865Z,3.20
2023-10-17T03:32:59.926Z,3.10
2023-10-17T03:35:30.598Z,3.30
2023-10-17T03:37:58.867Z,3.60
2023-10-17T03:40:43.319Z,3.10
2023-10-17T03:43:14.372Z,2.90
2023-10-17T03:45:45.800Z,3.10
2023-10-17T03:48:17.076Z,3.50
2023-10-17T03:50:48.953Z,3.10
2023-10-17T03:53:26.479Z,3.40
2023-10-17T03:55:56.256Z,3.60
2023-10-17T03:58:24.552Z,3.30
2023-10-17T04:00:54.675Z,3.00
2023-10-17T04:03:32.969Z,3.80
2023-10-17T04:06:04.256Z,3.90
2023-10-17T04:08:32.865Z,3.50
2023-10-17T04:11:19.372Z,4.00
2023-10-17T04:13:51.538Z,3.40
2023-10-17T04:16:28.725Z,4.00
2023-10-17T04:19:01.740Z,3.70
2023-10-17T04:21:39.510Z,3.60
2023-10-17T04:24:08.355Z,3.30
2023-10-17T04:26:46.418Z,3.30
2023-10-17T04:29:19.567Z,3.40
2023-10-17T04:31:49.115Z,3.10
2023-10-17T04:34:19.843Z,3.80
2023-10-17T04:36:48.139Z,3.30
2023-10-17T04:39:25.813Z,3.50
2023-10-17T04:41:55.239Z,3.40
2023-10-17T04:44:55.754Z,3.10
2023-10-17T04:47:24.053Z,2.90
2023-10-17T04:49:56.210Z,4.10
2023-10-17T04:52:42.511Z,3.30
2023-10-17T04:55:23.705Z,3.00
2023-10-17T04:57:54.769Z,2.90
2023-10-17T05:00:42.857Z,2.80
2023-10-17T05:03:26.768Z,3.10
2023-10-17T05:06:14.819Z,3.00
2023-10-17T05:09:09.770Z,2.80
2023-10-17T05:11:56.860Z,2.70
2023-10-17T05:14:44.085Z,3.10
2023-10-17T05:17:31.271Z,3.00
2023-10-17T05:20:18.330Z,3.20
2023-10-17T05:23:05.374Z,3.40
2023-10-17T05:25:52.392Z,3.30
2023-10-17T05:28:39.574Z,3.50
2023-10-17T05:31:31.278Z,3.20
2023-10-17T05:34:18.555Z,2.90
2023-10-17T05:37:05.438Z,2.90
2023-10-17T05:39:52.451Z,3.20
2023-10-17T05:42:39.648Z,3.30
2023-10-17T05:45:26.918Z,2.90
2023-10-17T05:48:14.514Z,2.90
2023-10-17T05:51:01.441Z,3.50
2023-10-17T05:53:48.872Z,3.40
2023-10-17T05:56:36.002Z,3.10
2023-10-17T05:59:23.022Z,3.10
2023-10-17T06:02:10.052Z,2.80
2023-10-17T06:04:57.008Z,2.90
2023-10-17T06:07:44.153Z,3.20
2023-10-17T06:10:31.439Z,3.00
2023-10-17T06:13:18.600Z,3.80
2023-10-17T06:16:06.480Z,3.60
2023-10-17T06:18:41.833Z,4.00
2023-10-17T06:21:20.178Z,3.90
2023-10-17T06:23:51.978Z,3.80
2023-10-17T06:26:40.303Z,3.80
2023-10-17T06:29:18.628Z,4.10
2023-10-17T06:31:51.556Z,3.50
2023-10-17T06:34:21.851Z,3.90
2023-10-17T06:36:52.290Z,4.00
2023-10-17T06:39:21.073Z,4.00
2023-10-17T06:41:50.568Z,4.00
2023-10-17T06:44:24.782Z,3.80
2023-10-17T06:46:57.747Z,4.10
2023-10-17T06:49:33.048Z,4.00
2023-10-17T06:52:13.258Z,4.40
2023-10-17T06:54:42.944Z,4.50
2023-10-17T06:57:21.784Z,4.40
2023-10-17T06:59:54.549Z,4.30
2023-10-17T07:02:30.673Z,4.20
2023-10-17T07:05:03.202Z,3.80
2023-10-17T07:07:41.748Z,5.00
2023-10-17T07:10:25.404Z,5.00
2023-10-17T07:13:33.466Z,5.30
2023-10-17T07:16:12.763Z,6.60
2023-10-17T07:18:46.056Z,7.20
2023-10-17T07:21:18.795Z,6.80
2023-10-17T07:23:49.690Z,7.00
2023-10-17T07:29:01.422Z,6.90
2023-10-17T07:31:31.474Z,6.30
2023-10-17T07:34:17.947Z,7.30
2023-10-17T07:36:49.459Z,5.90
2023-10-17T07:39:25.823Z,5.00
2023-10-17T07:41:54.746Z,4.10
2023-10-17T07:44:28.243Z,3.90
2023-10-17T07:47:09.237Z,3.80
2023-10-17T07:49:44.236Z,3.50
2023-10-17T07:52:24.731Z,4.40
2023-10-17T07:54:58.744Z,4.20
2023-10-17T07:57:28.412Z,4.00
2023-10-17T07:59:59.691Z,3.80
2023-10-17T08:02:32.470Z,4.00
2023-10-17T08:05:18.483Z,4.20
2023-10-17T08:07:51.118Z,4.80
2023-10-17T08:10:31.702Z,5.30
2023-10-17T08:12:59.979Z,6.00
2023-10-17T08:15:37.753Z,7.10
2023-10-17T08:18:16.758Z,6.70
2023-10-17T08:21:04.240Z,6.30
2023-10-17T08:23:35.376Z,6.10
2023-10-17T08:26:11.962Z,7.00
2023-10-17T08:28:46.391Z,6.50
2023-10-17T08:31:22.490Z,6.00
2023-10-17T08:34:04.859Z,5.90
2023-10-17T08:36:44.555Z,5.60
2023-10-17T08:39:47.009Z,6.60
2023-10-17T08:42:16.040Z,6.00
2023-10-17T08:44:48.536Z,6.30
2023-10-17T08:47:20.315Z,6.40
2023-10-17T08:49:48.892Z,6.90
2023-10-17T08:52:24.838Z,6.30
2023-10-17T08:54:55.870Z,6.30
2023-10-17T08:57:24.994Z,7.00
2023-10-17T08:59:56.015Z,7.00
2023-10-17T09:02:31.498Z,6.50
2023-10-17T09:05:14.716Z,6.00
2023-10-17T09:08:19.122Z,5.90
2023-10-17T09:10:52.011Z,6.20
2023-10-17T09:13:29.610Z,5.60
2023-10-17T09:16:10.782Z,5.90
2023-10-17T09:18:43.983Z,5.80
2023-10-17T09:21:15.439Z,6.10
2023-10-17T09:23:44.513Z,6.10
2023-10-17T09:26:21.586Z,6.00
2023-10-17T09:28:50.496Z,6.00
2023-10-17T09:31:19.346Z,6.60
2023-10-17T09:33:49.976Z,5.70
2023-10-17T09:38:50.062Z,6.50
2023-10-17T09:41:20.228Z,6.50
2023-10-17T09:43:52.850Z,6.40
2023-10-17T09:46:28.128Z,5.10
2023-10-17T09:49:02.708Z,5.40
2023-10-17T09:51:37.017Z,5.10
2023-10-17T09:54:06.739Z,4.90
2023-10-17T09:56:44.128Z,5.90
2023-10-17T09:59:17.931Z,5.50
2023-10-17T10:01:50.730Z,5.40
2023-10-17T10:04:20.954Z,4.80
2023-10-17T10:06:49.615Z,3.80
2023-10-17T10:09:25.596Z,4.50
2023-10-17T10:11:57.045Z,4.50
2023-10-17T10:14:25.406Z,4.30
2023-10-17T10:16:57.721Z,2.70
2023-10-17T10:19:46.124Z,2.20
2023-10-17T10:22:18.558Z,2.40
2023-10-17T10:24:49.134Z,2.10
2023-10-17T10:27:28.933Z,2.00
2023-10-17T10:30:33.023Z,2.20
2023-10-17T10:33:01.498Z,2.00
2023-10-17T10:35:33.548Z,2.10
2023-10-17T10:38:02.141Z,2.10
2023-10-17T10:40:35.686Z,1.90
2023-10-17T10:43:06.127Z,1.90
2023-10-17T10:45:42.314Z,1.90
2023-10-17T10:48:18.834Z,2.00
2023-10-17T10:50:50.116Z,1.60
2023-10-17T10:53:32.878Z,2.00
2023-10-17T10:56:03.708Z,1.90
2023-10-17T10:58:34.970Z,2.00
2023-10-17T11:01:09.509Z,5.20
2023-10-17T11:03:42.873Z,2.20
2023-10-17T11:06:11.752Z,1.90
2023-10-17T11:08:47.722Z,2.00
2023-10-17T11:11:18.346Z,2.00
2023-10-17T11:13:54.041Z,2.40
2023-10-17T11:16:27.100Z,1.80
2023-10-17T11:18:56.393Z,1.80
2023-10-17T11:21:26.186Z,1.60
2023-10-17T11:24:06.251Z,1.80
2023-10-17T11:26:38.306Z,1.90
2023-10-17T11:29:09.189Z,1.60
2023-10-17T11:31:37.867Z,1.70
2023-10-17T11:34:14.299Z,1.80
2023-10-17T11:36:53.021Z,1.90
2023-10-17T11:39:21.718Z,1.60
2023-10-17T11:41:55.905Z,1.70
2023-10-17T11:44:26.276Z,1.50
2023-10-17T11:49:37.259Z,1.60
2023-10-17T11:52:13.885Z,1.60
2023-10-17T11:55:02.290Z,1.60
2023-10-17T11:57:34.989Z,1.50
2023-10-17T12:00:21.460Z,1.50
2023-10-17T12:02:51.018Z,1.60
2023-10-17T12:05:21.627Z,1.40
2023-10-17T12:07:56.363Z,1.70
2023-10-17T12:10:26.561Z,1.60
2023-10-17T12:15:30.160Z,1.40
2023-10-17T12:17:58.750Z,1.40
2023-10-17T12:20:30.342Z,1.70
2023-10-17T12:23:01.036Z,1.30
2023-10-17T12:25:34.471Z,1.70
2023-10-17T12:28:03.877Z,1.40
2023-10-17T12:30:37.860Z,1.40
2023-10-17T12:33:07.625Z,1.30
2023-10-17T12:35:36.136Z,1.50
2023-10-17T12:38:15.893Z,1.50
2023-10-17T12:40:44.327Z,1.30
2023-10-17T12:43:13.453Z,1.30
2023-10-17T12:45:43.365Z,1.60
2023-10-17T12:48:15.210Z,1.60
2023-10-17T12:50:46.694Z,1.90
2023-10-17T12:53:15.897Z,1.60
2023-10-17T12:55:44.465Z,1.60
2023-10-17T12:58:13.052Z,1.50
2023-10-17T13:00:43.033Z,1.70
2023-10-17T13:03:11.413Z,1.60
2023-10-17T13:05:40.156Z,1.80
2023-10-17T13:08:08.948Z,1.50
2023-10-17T13:10:37.297Z,1.50
2023-10-17T13:13:05.881Z,1.80
2023-10-17T13:15:34.397Z,1.70
2023-10-17T13:18:05.590Z,1.60
2023-10-17T13:20:39.698Z,1.40
2023-10-17T13:23:22.091Z,1.60
2023-10-17T13:25:50.920Z,1.60
2023-10-17T13:28:19.100Z,1.60
2023-10-17T13:30:47.827Z,1.80
2023-10-17T13:33:16.308Z,1.70
2023-10-17T13:35:45.788Z,1.40
2023-10-17T13:38:15.007Z,1.80
2023-10-17T13:40:43.243Z,1.70
2023-10-17T13:43:14.916Z,1.70
2023-10-17T13:45:43.776Z,1.50
2023-10-17T13:48:13.305Z,1.60
2023-10-17T13:50:41.673Z,1.60
2023-10-17T13:53:11.808Z,1.70
2023-10-17T13:55:40.103Z,1.50
2023-10-17T13:58:08.277Z,1.50
2023-10-17T14:00:46.454Z,1.70
2023-10-17T14:03:15.699Z,1.60
2023-10-17T14:05:50.054Z,1.90
2023-10-17T14:08:19.957Z,1.70
2023-10-17T14:13:18.849Z,1.80
2023-10-17T14:15:47.181Z,1.30
2023-10-17T14:18:15.451Z,1.70
2023-10-17T14:21:05.696Z,1.70
2023-10-17T14:23:47.061Z,2.00
2023-10-17T14:26:16.979Z,1.90
2023-10-17T14:28:45.451Z,2.10
2023-10-17T14:31:13.628Z,1.70
2023-10-17T14:33:45.565Z,1.70
2023-10-17T14:36:14.748Z,1.70
2023-10-17T14:38:43.958Z,1.50
2023-10-17T14:41:13.264Z,1.60
2023-10-17T14:43:47.833Z,1.50
2023-10-17T14:46:17.655Z,1.80
2023-10-17T14:48:46.378Z,1.80
2023-10-17T14:51:15.015Z,2.10
2023-10-17T14:53:50.856Z,2.20
2023-10-17T14:56:23.020Z,1.70
2023-10-17T14:58:51.872Z,1.80
2023-10-17T15:01:20.827Z,2.10
2023-10-17T15:03:52.316Z,2.00
2023-10-17T15:06:20.986Z,2.00
2023-10-17T15:08:49.281Z,1.80
2023-10-17T15:11:17.575Z,2.10
2023-10-17T15:13:45.635Z,2.20
2023-10-17T15:16:17.697Z,2.10
2023-10-17T15:18:46.717Z,2.10
2023-10-17T15:21:16.945Z,2.30
2023-10-17T15:23:45.208Z,2.20
2023-10-17T15:26:13.395Z,2.20
2023-10-17T15:28:45.772Z,2.20
2023-10-17T15:31:18.091Z,1.90
2023-10-17T15:33:46.728Z,2.60
2023-10-17T15:36:15.375Z,2.60
2023-10-17T15:38:44.348Z,2.50
2023-10-17T15:41:17.509Z,2.50
2023-10-17T15:43:46.957Z,2.60
2023-10-17T15:46:17.003Z,2.80
2023-10-17T15:48:45.466Z,2.40
2023-10-17T15:51:19.302Z,2.50
2023-10-17T15:53:47.673Z,3.00
2023-10-17T15:56:15.998Z,3.50
2023-10-17T15:58:46.342Z,3.20
2023-10-17T16:01:14.870Z,2.90
2023-10-17T16:03:47.875Z,3.00
2023-10-17T16:06:16.974Z,3.10
2023-10-17T16:08:47.108Z,3.20
2023-10-17T16:11:17.460Z,3.30
2023-10-17T16:13:45.983Z,3.10
2023-10-17T16:16:14.356Z,3.20
2023-10-17T16:18:42.606Z,3.00
2023-10-17T16:21:11.460Z,3.10
2023-10-17T16:23:40.314Z,3.10
2023-10-17T16:26:10.124Z,3.10
2023-10-17T16:28:38.295Z,3.50
2023-10-17T16:31:09.616Z,3.70
2023-10-17T16:33:37.885Z,4.40
2023-10-17T16:36:07.536Z,4.20
2023-10-17T16:38:36.115Z,3.30
2023-10-17T16:41:04.929Z,4.30
2023-10-17T16:43:33.524Z,3.90
2023-10-17T16:46:02.139Z,4.10
2023-10-17T16:48:31.078Z,4.40
2023-10-17T16:50:59.379Z,4.10
2023-10-17T16:53:29.998Z,4.30
2023-10-17T16:55:58.699Z,5.00
2023-10-17T16:58:27.868Z,4.90
2023-10-17T17:01:07.199Z,4.80
2023-10-17T17:03:35.843Z,4.70
2023-10-17T17:06:07.029Z,4.20
2023-10-17T17:08:36.056Z,4.20
2023-10-17T17:11:06.043Z,3.80
2023-10-17T17:13:35.156Z,3.80
2023-10-17T17:16:03.994Z,4.10
2023-10-17T17:21:08.760Z,3.60
2023-10-17T17:23:36.916Z,4.10
2023-10-17T17:26:05.193Z,3.90
2023-10-17T17:28:33.339Z,3.70
2023-10-17T17:31:06.916Z,4.00
2023-10-17T17:33:35.326Z,4.20
2023-10-17T17:36:05.310Z,4.00
2023-10-17T17:38:36.529Z,4.90
2023-10-17T17:41:06.804Z,5.30
2023-10-17T17:43:35.257Z,5.50
2023-10-17T17:46:06.366Z,5.50
2023-10-17T17:48:35.901Z,5.90
2023-10-17T17:51:05.075Z,5.10
2023-10-17T17:53:33.444Z,4.90
2023-10-17T17:56:02.455Z,5.40
2023-10-17T17:58:32.009Z,5.20
2023-10-17T18:01:01.306Z,5.30
2023-10-17T18:03:29.615Z,4.70
2023-10-17T18:05:57.789Z,5.80
2023-10-17T18:08:27.538Z,5.20
2023-10-17T18:10:56.901Z,5.80
2023-10-17T18:13:25.027Z,5.50
2023-10-17T18:15:54.922Z,6.10
2023-10-17T18:18:23.847Z,6.60
2023-10-17T18:21:14.257Z,6.20
2023-10-17T18:23:46.237Z,6.10
2023-10-17T18:26:19.870Z,5.30
2023-10-17T18:28:47.994Z,6.80
2023-10-17T18:31:17.284Z,5.20
2023-10-17T18:33:47.201Z,6.70
2023-10-17T18:36:18.111Z,5.80
2023-10-17T18:38:49.590Z,5.80
2023-10-17T18:41:17.699Z,5.70
2023-10-17T18:43:46.094Z,6.40
2023-10-17T18:46:18.990Z,6.40
2023-10-17T18:48:47.790Z,6.20
2023-10-17T18:51:16.026Z,5.90
2023-10-17T18:53:45.113Z,6.20
2023-10-17T18:56:14.799Z,5.90
2023-10-17T18:58:43.005Z,6.60
2023-10-17T19:01:15.846Z,6.30
2023-10-17T19:03:45.793Z,5.80
2023-10-17T19:06:15.123Z,5.90
2023-10-17T19:08:44.020Z,6.20
2023-10-17T19:11:13.543Z,6.30
2023-10-17T19:13:42.255Z,5.60
2023-10-17T19:16:12.310Z,5.80
2023-10-17T19:18:41.907Z,6.20
2023-10-17T19:21:13.729Z,6.20
2023-10-17T19:23:44.818Z,5.40
2023-10-17T19:26:14.833Z,6.00
2023-10-17T19:28:46.834Z,6.10
2023-10-17T19:31:15.783Z,6.20
2023-10-17T19:33:43.963Z,6.40
2023-10-17T19:36:12.095Z,5.90
2023-10-17T19:38:41.066Z,6.30
2023-10-17T19:41:09.135Z,6.30
2023-10-17T19:43:37.220Z,6.10
2023-10-17T19:46:05.384Z,6.00
2023-10-17T19:48:35.490Z,6.20
2023-10-17T19:51:03.940Z,6.40
2023-10-17T19:53:32.999Z,6.30
2023-10-17T19:56:01.103Z,6.00
2023-10-17T19:58:29.208Z,5.90
2023-10-17T20:00:57.348Z,6.00
2023-10-17T20:03:25.661Z,6.00
2023-10-17T20:05:53.880Z,6.30
2023-10-17T20:08:22.597Z,6.90
2023-10-17T20:11:00.435Z,6.00
2023-10-17T20:13:28.677Z,6.50
2023-10-17T20:15:56.929Z,6.80
2023-10-17T20:18:26.190Z,6.20
2023-10-17T20:20:54.353Z,6.00
2023-10-17T20:23:22.642Z,6.30
2023-10-17T20:25:55.149Z,5.90
2023-10-17T20:28:23.343Z,5.80
2023-10-17T20:30:54.511Z,5.80
2023-10-17T20:33:23.101Z,5.80
2023-10-17T20:35:51.709Z,6.30
2023-10-17T20:38:19.917Z,6.30
2023-10-17T20:40:48.056Z,6.00
2023-10-17T20:43:16.162Z,5.70
2023-10-17T20:45:45.566Z,6.10
2023-10-17T20:48:13.907Z,5.60
2023-10-17T20:50:42.201Z,5.80
2023-10-17T20:53:10.373Z,6.30
2023-10-17T20:55:38.496Z,6.00
2023-10-17T20:58:06.692Z,5.60
2023-10-17T21:00:36.025Z,5.70
2023-10-17T21:03:04.675Z,5.70
2023-10-17T21:05:36.181Z,5.40
2023-10-17T21:08:07.234Z,5.80
2023-10-17T21:10:46.826Z,5.70
2023-10-17T21:13:15.006Z,5.60
2023-10-17T21:15:43.332Z,5.60
2023-10-17T21:18:13.143Z,6.30
2023-10-17T21:20:41.748Z,5.90
2023-10-17T21:23:11.327Z,5.80
2023-10-17T21:25:40.415Z,5.90
2023-10-17T21:28:11.331Z,6.50
2023-10-17T21:30:39.566Z,5.40
2023-10-17T21:51:16.465Z,6.20
2023-10-17T21:53:45.889Z,6.00
2023-10-17T21:56:15.588Z,6.70
2023-10-17T21:58:48.590Z,6.10
2023-10-17T22:01:21.791Z,6.60
2023-10-17T22:03:51.258Z,6.10
2023-10-17T22:06:22.257Z,6.10
2023-10-17T22:08:50.852Z,6.30
2023-10-17T22:11:20.320Z,6.80
2023-10-17T22:13:53.436Z,6.10
2023-10-17T22:16:22.492Z,5.90
2023-10-17T22:18:51.219Z,6.20
2023-10-17T22:21:23.199Z,5.60
2023-10-17T22:23:51.981Z,6.60
2023-10-17T22:26:20.803Z,6.10
2023-10-17T22:28:49.180Z,6.60
2023-10-17T22:31:18.712Z,6.60
2023-10-17T22:33:47.069Z,6.10
2023-10-17T22:36:16.709Z,5.90
2023-10-17T22:38:45.026Z,6.40
2023-10-17T22:41:13.505Z,5.80
2023-10-17T22:43:41.878Z,5.70
2023-10-17T22:46:10.612Z,6.20
2023-10-17T22:48:39.135Z,6.60
2023-10-17T22:51:07.641Z,6.10
2023-10-17T22:53:37.944Z,6.50
2023-10-17T22:56:11.084Z,6.20
2023-10-17T22:58:41.478Z,5.90
2023-10-17T23:01:14.031Z,6.20
2023-10-17T23:03:43.151Z,6.10
2023-10-17T23:06:11.872Z,6.20
2023-10-17T23:08:40.215Z,6.50
2023-10-17T23:11:08.511Z,5.90
2023-10-17T23:13:37.494Z,6.80
2023-10-17T23:16:09.843Z,6.30
2023-10-17T23:18:39.759Z,6.50
2023-10-17T23:21:08.441Z,6.00
2023-10-17T23:23:36.759Z,6.00
2023-10-17T23:26:05.344Z,6.00
2023-10-17T23:28:34.055Z,5.70
2023-10-17T23:31:02.832Z,5.20
2023-10-17T23:33:31.294Z,6.00
2023-10-17T23:35:59.771Z,5.70
2023-10-17T23:38:29.395Z,4.80
2023-10-17T23:40:57.659Z,5.50
2023-10-17T23:43:25.945Z,5.20
2023-10-17T23:45:54.584Z,4.90
2023-10-17T23:48:29.458Z,5.10
2023-10-17T23:50:57.836Z,5.40
2023-10-17T23:53:28.908Z,4.40
2023-10-17T23:56:02.624Z,5.10
2023-10-17T23:58:33.459Z,5.40
